createdAt,value
2022-10-06T00:01:19.358Z,3.93
2022-10-06T00:05:20.535Z,3.47
2022-10-06T00:09:21.500Z,4.17
2022-10-06T00:13:26.620Z,3.87
2022-10-06T00:17:27.562Z,3.47
2022-10-06T00:21:28.487Z,3.57
2022-10-06T00:25:29.677Z,4.83
2022-10-06T00:29:30.730Z,4.63
2022-10-06T00:33:31.751Z,3.67
2022-10-06T00:37:37.593Z,4.27
2022-10-06T00:41:38.756Z,5.10
2022-10-06T00:45:43.539Z,3.93
2022-10-06T00:49:45.836Z,4.83
2022-10-06T00:53:47.061Z,4.57
2022-10-06T00:57:49.490Z,4.63
2022-10-06T01:02:03.124Z,4.57
2022-10-06T01:06:04.627Z,4.37
2022-10-06T01:10:05.966Z,3.73
2022-10-06T01:14:06.995Z,3.73
2022-10-06T01:18:12.550Z,4.20
2022-10-06T01:22:16.028Z,3.63
2022-10-06T01:26:18.780Z,4.17
2022-10-06T01:30:29.166Z,2.13
2022-10-06T01:34:30.106Z,1.50
2022-10-06T01:38:31.633Z,0.90
2022-10-06T01:42:34.938Z,1.33
2022-10-06T01:46:35.924Z,1.10
2022-10-06T01:50:36.830Z,1.20
2022-10-06T01:54:38.076Z,0.90
2022-10-06T01:58:38.919Z,0.83
2022-10-06T02:02:40.670Z,1.50
2022-10-06T02:06:41.643Z,1.03
2022-10-06T02:10:42.570Z,0.90
2022-10-06T02:14:43.395Z,0.80
2022-10-06T02:18:44.488Z,1.00
2022-10-06T02:22:45.426Z,1.53
2022-10-06T02:26:46.349Z,1.47
2022-10-06T02:30:47.817Z,0.97
2022-10-06T02:34:49.214Z,1.00
2022-10-06T02:38:50.186Z,0.77
2022-10-06T02:42:51.156Z,0.87
2022-10-06T02:46:53.040Z,0.73
2022-10-06T02:50:56.513Z,1.20
2022-10-06T02:54:57.572Z,0.97
2022-10-06T02:58:58.437Z,1.40
2022-10-06T03:02:59.902Z,0.80
2022-10-06T03:07:01.201Z,0.93
2022-10-06T03:11:03.478Z,1.13
2022-10-06T03:15:05.237Z,1.57
2022-10-06T03:19:07.485Z,0.93
2022-10-06T03:23:13.338Z,1.10
2022-10-06T03:27:11.308Z,1.10
2022-10-06T03:31:12.785Z,0.97
2022-10-06T03:35:13.946Z,1.07
2022-10-06T03:39:15.216Z,1.20
2022-10-06T03:43:16.073Z,1.17
2022-10-06T03:47:17.706Z,0.83
2022-10-06T03:51:25.373Z,0.90
2022-10-06T03:55:26.317Z,1.00
2022-10-06T03:59:29.263Z,1.47
2022-10-06T04:03:30.659Z,1.27
2022-10-06T04:07:31.631Z,0.90
2022-10-06T04:11:35.535Z,0.93
2022-10-06T04:15:36.689Z,1.37
2022-10-06T04:19:37.712Z,1.03
2022-10-06T04:23:38.833Z,1.23
2022-10-06T04:27:39.736Z,1.00
2022-10-06T04:31:41.783Z,1.20
2022-10-06T04:35:42.764Z,1.97
2022-10-06T04:39:43.625Z,1.10
2022-10-06T04:43:46.111Z,1.30
2022-10-06T04:47:49.086Z,0.97
2022-10-06T04:51:50.108Z,1.33
2022-10-06T04:56:09.728Z,1.37
2022-10-06T05:00:23.989Z,1.23
2022-10-06T05:04:24.913Z,1.30
2022-10-06T05:08:26.236Z,1.33
2022-10-06T05:12:29.476Z,1.17
2022-10-06T05:16:31.072Z,1.53
2022-10-06T05:20:32.129Z,2.03
2022-10-06T05:24:33.008Z,1.53
2022-10-06T05:28:34.648Z,1.83
2022-10-06T05:32:36.302Z,1.70
2022-10-06T05:36:37.328Z,2.47
2022-10-06T05:40:38.284Z,2.20
2022-10-06T05:44:39.263Z,2.10
2022-10-06T05:48:40.215Z,2.50
2022-10-06T05:52:41.469Z,1.73
2022-10-06T05:56:42.500Z,2.20
2022-10-06T06:00:43.441Z,2.03
2022-10-06T06:04:44.329Z,2.30
2022-10-06T06:08:45.815Z,2.50
2022-10-06T06:12:47.083Z,3.40
2022-10-06T06:16:48.200Z,2.70
2022-10-06T06:21:00.553Z,2.17
2022-10-06T06:25:01.444Z,2.67
2022-10-06T06:29:03.611Z,2.60
2022-10-06T06:33:04.708Z,2.07
2022-10-06T06:37:09.420Z,2.43
2022-10-06T06:41:16.671Z,3.07
2022-10-06T06:45:17.622Z,2.83
2022-10-06T06:49:19.999Z,1.90
2022-10-06T06:53:21.112Z,1.70
2022-10-06T06:57:22.163Z,1.83
2022-10-06T07:01:23.433Z,2.07
2022-10-06T07:05:24.674Z,2.53
2022-10-06T07:09:26.362Z,2.43
2022-10-06T07:13:27.308Z,3.40
2022-10-06T07:17:46.771Z,2.90
2022-10-06T07:22:12.789Z,3.70
2022-10-06T07:26:13.686Z,3.37
2022-10-06T07:30:18.542Z,3.10
2022-10-06T07:34:19.389Z,3.77
2022-10-06T07:38:24.557Z,2.83
2022-10-06T07:42:25.432Z,4.17
2022-10-06T07:46:29.160Z,3.10
2022-10-06T07:50:30.295Z,3.03
2022-10-06T07:54:31.579Z,3.63
2022-10-06T07:58:34.031Z,3.23
2022-10-06T08:02:36.282Z,3.10
2022-10-06T08:06:38.056Z,3.20
2022-10-06T08:10:40.521Z,2.93
2022-10-06T08:14:41.622Z,4.07
2022-10-06T08:18:47.346Z,2.90
2022-10-06T08:22:47.720Z,3.03
2022-10-06T08:26:48.779Z,2.30
2022-10-06T08:30:51.715Z,2.67
2022-10-06T08:34:54.133Z,2.40
2022-10-06T08:38:55.708Z,4.43
2022-10-06T08:43:00.453Z,3.17
2022-10-06T08:47:10.040Z,3.03
2022-10-06T08:51:20.968Z,3.33
2022-10-06T08:55:35.145Z,2.93
2022-10-06T08:59:37.065Z,2.20
2022-10-06T09:03:38.962Z,2.20
2022-10-06T09:07:47.766Z,2.40
2022-10-06T09:11:53.012Z,2.00
2022-10-06T09:16:00.699Z,3.33
2022-10-06T09:20:23.696Z,2.47
2022-10-06T09:24:46.262Z,2.50
2022-10-06T09:28:45.778Z,2.83
2022-10-06T09:32:58.286Z,2.80
2022-10-06T09:37:02.561Z,2.47
2022-10-06T09:41:04.420Z,2.63
2022-10-06T09:45:14.154Z,3.00
2022-10-06T09:49:26.825Z,2.83
2022-10-06T09:53:27.746Z,2.30
2022-10-06T09:57:30.696Z,2.47
2022-10-06T10:01:31.882Z,2.73
2022-10-06T10:05:36.015Z,2.40
2022-10-06T10:09:36.998Z,2.00
2022-10-06T10:13:44.016Z,2.37
2022-10-06T10:17:54.887Z,1.87
2022-10-06T10:21:55.935Z,2.80
2022-10-06T10:26:36.127Z,1.97
2022-10-06T10:30:53.161Z,2.10
2022-10-06T10:35:18.333Z,2.50
2022-10-06T10:39:25.979Z,2.03
2022-10-06T10:43:52.048Z,1.80
2022-10-06T10:47:54.601Z,3.07
2022-10-06T10:52:02.385Z,2.60
2022-10-06T10:56:07.274Z,2.43
2022-10-06T11:00:17.795Z,2.70
2022-10-06T11:04:19.804Z,2.73
2022-10-06T11:08:39.785Z,2.30
2022-10-06T11:12:50.248Z,2.73
2022-10-06T11:17:09.983Z,2.37
2022-10-06T11:21:14.812Z,1.43
2022-10-06T11:25:22.670Z,2.60
2022-10-06T11:29:44.222Z,3.33
2022-10-06T11:33:49.148Z,1.40
2022-10-06T11:38:05.882Z,1.67
2022-10-06T11:42:19.743Z,1.93
2022-10-06T11:46:37.606Z,2.20
2022-10-06T11:50:42.434Z,1.93
2022-10-06T11:54:50.392Z,1.60
2022-10-06T11:58:57.863Z,1.60
2022-10-06T12:03:19.557Z,1.80
2022-10-06T12:07:20.694Z,2.40
2022-10-06T12:11:42.187Z,1.87
2022-10-06T12:20:43.230Z,1.87
2022-10-06T12:24:57.027Z,2.03
2022-10-06T12:29:05.155Z,2.17
2022-10-06T12:33:10.089Z,1.53
2022-10-06T12:37:29.801Z,2.03
2022-10-06T12:42:02.550Z,1.73
2022-10-06T12:46:07.372Z,1.90
2022-10-06T12:50:15.314Z,1.43
2022-10-06T12:54:32.325Z,1.73
2022-10-06T12:58:34.041Z,1.97
2022-10-06T13:02:35.315Z,1.47
2022-10-06T13:06:36.479Z,1.53
2022-10-06T13:10:37.712Z,1.40
2022-10-06T13:14:40.215Z,1.53
2022-10-06T13:18:41.433Z,1.30
2022-10-06T13:22:42.492Z,1.37
2022-10-06T13:26:44.771Z,2.20
2022-10-06T13:30:53.436Z,1.03
2022-10-06T13:34:54.532Z,1.67
2022-10-06T13:38:56.169Z,1.27
2022-10-06T13:42:59.371Z,1.27
2022-10-06T13:47:04.117Z,2.10
2022-10-06T13:51:05.533Z,1.47
2022-10-06T13:55:21.787Z,1.20
2022-10-06T13:59:30.036Z,1.47
2022-10-06T14:07:40.648Z,1.53
2022-10-06T14:11:43.488Z,1.63
2022-10-06T14:15:48.748Z,1.33
2022-10-06T14:19:50.562Z,2.47
2022-10-06T14:23:53.100Z,2.37
2022-10-06T14:27:54.615Z,1.10
2022-10-06T14:31:57.484Z,1.20
2022-10-06T14:35:58.470Z,1.93
2022-10-06T14:39:59.723Z,2.00
2022-10-06T14:44:05.361Z,1.17
2022-10-06T14:48:06.976Z,1.77
2022-10-06T14:52:09.829Z,1.90
2022-10-06T14:56:13.539Z,1.57
2022-10-06T15:00:15.577Z,2.07
2022-10-06T15:04:25.920Z,1.80
2022-10-06T15:08:27.122Z,1.63
2022-10-06T15:12:33.170Z,1.83
2022-10-06T15:16:33.721Z,1.63
2022-10-06T15:20:34.844Z,1.57
2022-10-06T15:24:35.875Z,1.70
2022-10-06T15:28:55.233Z,1.50
2022-10-06T15:32:57.029Z,2.70
2022-10-06T15:36:58.617Z,1.93
2022-10-06T15:41:02.451Z,2.33
2022-10-06T15:45:07.523Z,1.77
2022-10-06T15:49:12.926Z,1.37
2022-10-06T15:53:14.275Z,1.73
2022-10-06T15:57:20.598Z,1.90
2022-10-06T16:01:34.884Z,1.73
2022-10-06T16:05:46.687Z,1.37
2022-10-06T16:09:50.250Z,1.50
2022-10-06T16:13:51.704Z,1.43
2022-10-06T16:17:52.899Z,1.90
2022-10-06T16:21:58.613Z,1.47
2022-10-06T16:26:02.353Z,2.40
2022-10-06T16:30:04.504Z,1.80
2022-10-06T16:34:06.067Z,1.37
2022-10-06T16:38:08.121Z,2.60
2022-10-06T16:42:09.249Z,1.43
2022-10-06T16:46:12.774Z,1.90
2022-10-06T16:50:14.339Z,1.80
2022-10-06T16:54:16.682Z,3.47
2022-10-06T16:58:18.845Z,3.73
2022-10-06T17:02:20.228Z,4.03
2022-10-06T17:06:21.872Z,4.57
2022-10-06T17:10:24.438Z,2.47
2022-10-06T17:14:27.030Z,4.33
2022-10-06T17:18:28.783Z,3.37
2022-10-06T17:22:30.979Z,2.40
2022-10-06T17:26:35.507Z,2.53
2022-10-06T17:30:36.660Z,2.93
2022-10-06T17:34:39.383Z,3.70
2022-10-06T17:38:42.844Z,3.50
2022-10-06T17:42:44.081Z,3.27
2022-10-06T17:46:46.677Z,3.70
2022-10-06T17:50:57.607Z,3.80
2022-10-06T17:54:58.682Z,3.43
2022-10-06T17:59:03.050Z,3.70
2022-10-06T18:03:04.225Z,2.77
2022-10-06T18:07:05.956Z,2.43
2022-10-06T18:11:25.739Z,2.47
2022-10-06T18:15:27.112Z,3.47
2022-10-06T18:19:31.719Z,4.00
2022-10-06T18:23:35.323Z,4.63
2022-10-06T18:27:39.444Z,4.37
2022-10-06T18:31:41.874Z,4.47
2022-10-06T18:39:47.698Z,5.77
2022-10-06T18:43:50.188Z,5.03
2022-10-06T18:48:10.198Z,5.80
2022-10-06T18:52:13.070Z,4.83
2022-10-06T18:56:16.145Z,4.23
2022-10-06T19:00:18.836Z,4.00
2022-10-06T19:04:23.124Z,4.57
2022-10-06T19:08:24.848Z,3.47
2022-10-06T19:12:48.325Z,4.03
2022-10-06T19:16:59.960Z,4.60
2022-10-06T19:21:07.280Z,6.30
2022-10-06T19:25:08.491Z,7.78
2022-10-06T19:29:11.624Z,6.87
2022-10-06T19:33:14.051Z,6.43
2022-10-06T19:37:16.294Z,7.27
2022-10-06T19:41:36.884Z,9.33
2022-10-06T19:45:38.961Z,10.27
2022-10-06T19:49:42.225Z,6.80
2022-10-06T19:53:49.333Z,5.83
2022-10-06T19:57:52.056Z,4.83
2022-10-06T20:01:54.745Z,6.73
2022-10-06T20:06:01.704Z,7.60
2022-10-06T20:10:04.429Z,5.23
2022-10-06T20:14:10.277Z,14.97
2022-10-06T20:18:12.829Z,5.80
2022-10-06T20:22:14.827Z,4.70
2022-10-06T20:26:19.225Z,5.43
2022-10-06T20:30:20.690Z,5.53
2022-10-06T20:34:25.748Z,6.37
2022-10-06T20:38:46.730Z,7.07
2022-10-06T20:42:51.588Z,7.27
2022-10-06T20:46:53.915Z,8.68
2022-10-06T20:50:56.074Z,8.47
2022-10-06T20:54:57.237Z,7.20
2022-10-06T20:58:58.991Z,6.83
2022-10-06T21:03:00.089Z,8.17
2022-10-06T21:07:03.266Z,9.37
2022-10-06T21:11:04.576Z,14.57
2022-10-06T21:15:06.379Z,7.87
2022-10-06T21:19:10.329Z,6.33
2022-10-06T21:23:12.643Z,5.00
2022-10-06T21:27:15.874Z,5.20
2022-10-06T21:31:18.647Z,4.67
2022-10-06T21:35:19.920Z,6.40
2022-10-06T21:39:20.793Z,8.70
2022-10-06T21:43:21.868Z,7.70
2022-10-06T21:47:22.863Z,6.60
2022-10-06T21:51:25.270Z,4.80
2022-10-06T21:55:26.439Z,4.53
2022-10-06T21:59:27.420Z,5.00
2022-10-06T22:03:29.321Z,4.90
2022-10-06T22:07:30.473Z,4.40
2022-10-06T22:11:34.911Z,4.43
2022-10-06T22:15:36.358Z,5.13
2022-10-06T22:19:37.572Z,5.33
2022-10-06T22:23:41.767Z,5.53
2022-10-06T22:27:43.398Z,5.00
2022-10-06T22:31:46.917Z,6.10
2022-10-06T22:35:50.862Z,6.17
2022-10-06T22:39:51.702Z,6.60
2022-10-06T22:43:57.041Z,5.77
2022-10-06T22:47:58.154Z,5.20
2022-10-06T22:51:59.177Z,4.93
2022-10-06T22:56:01.220Z,6.63
2022-10-06T23:00:02.297Z,6.67
2022-10-06T23:04:03.502Z,6.50
2022-10-06T23:08:06.323Z,5.33
2022-10-06T23:12:07.185Z,5.20
2022-10-06T23:16:10.511Z,5.77
2022-10-06T23:20:11.645Z,5.30
2022-10-06T23:24:13.007Z,5.07
2022-10-06T23:28:14.227Z,5.27
2022-10-06T23:32:15.532Z,5.07
2022-10-06T23:36:17.800Z,4.70
2022-10-06T23:40:18.802Z,4.87
2022-10-06T23:44:19.779Z,5.57
2022-10-06T23:48:20.903Z,5.77
2022-10-06T23:52:21.811Z,5.57
2022-10-06T23:56:22.937Z,5.53
